createdAt,value
2023-04-23T00:01:19.517Z,69.67
2023-04-23T00:03:48.970Z,69.93
2023-04-23T00:06:18.165Z,69.90
2023-04-23T00:08:46.455Z,69.97
2023-04-23T00:11:15.391Z,70.02
2023-04-23T00:13:44.598Z,69.66
2023-04-23T00:16:14.467Z,69.61
2023-04-23T00:18:42.963Z,69.61
2023-04-23T00:21:11.489Z,69.67
2023-04-23T00:23:40.404Z,69.58
2023-04-23T00:26:09.053Z,69.67
2023-04-23T00:28:37.499Z,69.65
2023-04-23T00:31:07.883Z,69.60
2023-04-23T00:33:37.051Z,69.75
2023-04-23T00:36:06.328Z,69.64
2023-04-23T00:38:38.705Z,69.68
2023-04-23T00:41:07.420Z,69.69
2023-04-23T00:43:38.272Z,69.86
2023-04-23T00:46:06.862Z,69.97
2023-04-23T00:48:36.108Z,69.95
2023-04-23T00:51:05.972Z,69.88
2023-04-23T00:53:34.423Z,69.77
2023-04-23T00:56:04.352Z,69.85
2023-04-23T00:58:33.499Z,69.70
2023-04-23T01:01:04.679Z,69.93
2023-04-23T01:03:36.609Z,70.10
2023-04-23T01:06:06.021Z,70.12
2023-04-23T01:08:34.980Z,70.07
2023-04-23T01:11:03.914Z,69.97
2023-04-23T01:13:32.704Z,69.99
2023-04-23T01:16:04.003Z,70.12
2023-04-23T01:18:32.765Z,70.08
2023-04-23T01:21:02.250Z,70.20
2023-04-23T01:23:31.194Z,70.11
2023-04-23T01:26:00.884Z,70.04
2023-04-23T01:28:30.429Z,70.16
2023-04-23T01:30:58.955Z,70.05
2023-04-23T01:33:27.797Z,69.93
2023-04-23T01:35:57.371Z,69.95
2023-04-23T01:38:26.086Z,70.41
2023-04-23T01:40:54.553Z,70.50
2023-04-23T01:43:23.434Z,70.38
2023-04-23T01:45:53.093Z,70.40
2023-04-23T01:48:21.889Z,70.28
2023-04-23T01:50:51.646Z,70.87
2023-04-23T01:53:20.094Z,70.69
2023-04-23T01:55:48.496Z,70.64
2023-04-23T01:58:18.285Z,70.60
2023-04-23T02:00:47.674Z,70.77
2023-04-23T02:03:17.395Z,70.67
2023-04-23T02:05:47.458Z,70.85
2023-04-23T02:08:16.499Z,70.89
2023-04-23T02:10:44.912Z,71.06
2023-04-23T02:13:14.005Z,71.27
2023-04-23T02:15:43.460Z,71.87
2023-04-23T02:18:12.466Z,71.62
2023-04-23T02:20:41.901Z,71.73
2023-04-23T02:23:10.324Z,71.73
2023-04-23T02:25:39.553Z,71.67
2023-04-23T02:28:08.523Z,71.24
2023-04-23T02:30:38.192Z,71.25
2023-04-23T02:33:07.707Z,71.22
2023-04-23T02:35:36.965Z,71.16
2023-04-23T02:38:05.429Z,70.98
2023-04-23T02:40:34.327Z,70.91
2023-04-23T02:43:02.809Z,70.94
2023-04-23T02:45:31.595Z,71.20
2023-04-23T02:48:01.053Z,71.00
2023-04-23T02:50:29.684Z,71.09
2023-04-23T02:52:58.257Z,71.22
2023-04-23T02:55:32.271Z,71.25
2023-04-23T02:58:01.243Z,71.08
2023-04-23T03:00:30.667Z,71.30
2023-04-23T03:02:59.432Z,71.17
2023-04-23T03:05:29.273Z,71.14
2023-04-23T03:07:57.755Z,71.15
2023-04-23T03:10:26.835Z,71.00
2023-04-23T03:12:56.619Z,71.05
2023-04-23T03:15:27.675Z,70.93
2023-04-23T03:17:56.749Z,70.64
2023-04-23T03:20:25.309Z,70.43
2023-04-23T03:22:54.205Z,70.47
2023-04-23T03:25:24.590Z,70.82
2023-04-23T03:27:53.939Z,70.89
2023-04-23T03:30:22.705Z,70.53
2023-04-23T03:32:55.220Z,70.04
2023-04-23T03:35:24.600Z,69.82
2023-04-23T03:37:53.851Z,69.53
2023-04-23T03:40:23.666Z,69.09
2023-04-23T03:42:58.138Z,68.50
2023-04-23T03:45:36.535Z,67.36
2023-04-23T03:48:06.141Z,68.25
2023-04-23T03:50:40.786Z,68.22
2023-04-23T03:53:27.254Z,64.65
2023-04-23T03:56:14.459Z,63.83
2023-04-23T03:58:49.684Z,67.59
2023-04-23T04:01:18.536Z,65.65
2023-04-23T04:03:47.377Z,63.87
2023-04-23T04:06:17.485Z,64.88
2023-04-23T04:08:46.541Z,61.56
2023-04-23T04:11:14.884Z,56.96
2023-04-23T04:13:43.355Z,62.17
2023-04-23T04:16:11.824Z,63.54
2023-04-23T04:18:40.300Z,59.62
2023-04-23T04:21:08.741Z,61.99
2023-04-23T04:23:37.480Z,59.39
2023-04-23T04:26:05.863Z,58.93
2023-04-23T04:28:36.583Z,59.05
2023-04-23T04:31:05.824Z,54.25
2023-04-23T04:33:35.934Z,51.75
2023-04-23T04:36:05.427Z,45.50
2023-04-23T04:38:33.986Z,45.76
2023-04-23T04:41:02.493Z,44.75
2023-04-23T04:43:32.691Z,46.09
2023-04-23T04:46:01.447Z,47.80
2023-04-23T04:48:30.111Z,45.31
2023-04-23T04:50:58.555Z,43.85
2023-04-23T04:53:27.170Z,42.49
2023-04-23T04:55:55.709Z,44.40
2023-04-23T04:58:24.106Z,42.03
2023-04-23T05:00:53.300Z,40.43
2023-04-23T05:03:22.531Z,41.31
2023-04-23T05:05:51.616Z,39.13
2023-04-23T05:08:22.017Z,38.92
2023-04-23T05:10:54.481Z,37.92
2023-04-23T05:13:23.495Z,36.89
2023-04-23T05:15:51.956Z,37.36
2023-04-23T05:18:20.898Z,36.56
2023-04-23T05:20:49.339Z,36.97
2023-04-23T05:23:18.963Z,36.48
2023-04-23T05:25:47.444Z,35.21
2023-04-23T05:28:16.213Z,36.89
2023-04-23T05:30:44.756Z,36.91
2023-04-23T05:33:13.336Z,36.36
2023-04-23T05:35:41.984Z,36.27
2023-04-23T05:38:10.742Z,36.36
2023-04-23T05:40:39.529Z,36.60
2023-04-23T05:43:08.046Z,35.61
2023-04-23T05:45:37.184Z,35.05
2023-04-23T05:48:05.696Z,35.83
2023-04-23T05:50:34.634Z,35.44
2023-04-23T05:53:03.183Z,36.31
2023-04-23T05:55:32.669Z,37.82
2023-04-23T05:58:01.180Z,38.40
2023-04-23T06:00:29.715Z,38.65
2023-04-23T06:03:00.776Z,38.91
2023-04-23T06:05:30.255Z,40.09
2023-04-23T06:07:58.709Z,39.51
2023-04-23T06:10:27.282Z,37.46
2023-04-23T06:12:55.992Z,37.40
2023-04-23T06:15:27.381Z,38.99
2023-04-23T06:17:56.069Z,38.14
2023-04-23T06:20:25.674Z,38.28
2023-04-23T06:22:54.024Z,38.12
2023-04-23T06:25:22.588Z,38.23
2023-04-23T06:27:51.305Z,39.93
2023-04-23T06:30:22.310Z,41.65
2023-04-23T06:32:51.582Z,41.31
2023-04-23T06:35:20.112Z,41.36
2023-04-23T06:37:48.445Z,40.89
2023-04-23T06:40:17.239Z,40.35
2023-04-23T06:42:46.073Z,39.88
2023-04-23T06:45:20.351Z,38.35
2023-04-23T06:47:50.108Z,37.74
2023-04-23T06:50:18.954Z,38.21
2023-04-23T06:52:47.318Z,37.74
2023-04-23T06:55:15.874Z,38.38
2023-04-23T06:57:44.323Z,36.36
2023-04-23T07:00:13.797Z,36.83
2023-04-23T07:02:44.107Z,36.80
2023-04-23T07:05:12.571Z,34.81
2023-04-23T07:07:43.610Z,36.78
2023-04-23T07:10:14.332Z,36.85
2023-04-23T07:12:44.148Z,36.88
2023-04-23T07:15:12.643Z,35.70
2023-04-23T07:17:41.716Z,36.18
2023-04-23T07:20:10.368Z,34.69
2023-04-23T07:22:39.062Z,33.85
2023-04-23T07:25:08.911Z,33.43
2023-04-23T07:27:38.069Z,33.63
2023-04-23T07:30:08.368Z,32.54
2023-04-23T07:32:37.221Z,32.38
2023-04-23T07:35:06.772Z,31.27
2023-04-23T07:37:36.834Z,30.58
2023-04-23T07:40:08.162Z,29.41
2023-04-23T07:42:36.865Z,28.94
2023-04-23T07:45:06.215Z,27.94
2023-04-23T07:47:35.028Z,30.84
2023-04-23T07:50:03.970Z,31.79
2023-04-23T07:52:32.815Z,31.47
2023-04-23T07:55:01.306Z,31.41
2023-04-23T07:57:30.060Z,31.74
2023-04-23T07:59:58.479Z,30.30
2023-04-23T08:02:27.922Z,29.11
2023-04-23T08:04:57.377Z,29.42
2023-04-23T08:07:26.402Z,30.20
2023-04-23T08:09:54.939Z,30.11
2023-04-23T08:12:23.447Z,29.68
2023-04-23T08:14:51.861Z,30.00
2023-04-23T08:17:21.682Z,28.45
2023-04-23T08:19:50.750Z,27.94
2023-04-23T08:22:20.298Z,28.96
2023-04-23T08:24:48.724Z,29.02
2023-04-23T08:27:17.580Z,28.77
2023-04-23T08:29:45.877Z,28.97
2023-04-23T08:32:14.478Z,27.07
2023-04-23T08:34:43.027Z,27.28
2023-04-23T08:37:19.662Z,26.68
2023-04-23T08:39:55.895Z,26.22
2023-04-23T08:42:45.273Z,26.91
2023-04-23T08:45:14.138Z,27.18
2023-04-23T08:47:45.758Z,27.23
2023-04-23T08:50:20.089Z,25.75
2023-04-23T08:52:56.663Z,24.86
2023-04-23T08:55:25.579Z,24.19
2023-04-23T08:57:53.998Z,24.66
2023-04-23T09:00:24.250Z,25.45
2023-04-23T09:02:52.851Z,25.55
2023-04-23T09:05:21.820Z,24.42
2023-04-23T09:07:50.247Z,25.04
2023-04-23T09:10:18.891Z,24.37
2023-04-23T09:12:48.446Z,23.84
2023-04-23T09:15:16.854Z,24.75
2023-04-23T09:17:46.428Z,24.90
2023-04-23T09:20:15.534Z,24.07
2023-04-23T09:22:47.616Z,24.10
2023-04-23T09:25:18.256Z,23.89
2023-04-23T09:27:47.620Z,23.03
2023-04-23T09:30:16.549Z,22.72
2023-04-23T09:32:46.301Z,23.88
2023-04-23T09:35:16.305Z,23.42
2023-04-23T09:37:49.153Z,23.40
2023-04-23T09:40:23.076Z,23.29
2023-04-23T09:42:56.057Z,22.27
2023-04-23T09:45:27.790Z,23.93
2023-04-23T09:47:58.222Z,24.66
2023-04-23T09:50:37.182Z,24.09
2023-04-23T09:53:06.774Z,24.86
2023-04-23T09:55:39.606Z,25.00
2023-04-23T09:58:13.037Z,25.25
2023-04-23T10:00:42.093Z,25.19
2023-04-23T10:03:12.436Z,25.08
2023-04-23T10:08:16.323Z,24.68
2023-04-23T10:10:57.599Z,24.93
2023-04-23T10:13:35.948Z,24.31
2023-04-23T10:16:18.241Z,23.87
2023-04-23T10:18:52.307Z,24.31
2023-04-23T10:21:21.353Z,24.14
2023-04-23T10:23:50.672Z,26.81
2023-04-23T10:26:19.779Z,26.33
2023-04-23T10:28:49.308Z,24.81
2023-04-23T10:31:18.895Z,26.88
2023-04-23T10:33:59.229Z,26.25
2023-04-23T10:36:29.279Z,26.19
2023-04-23T10:39:01.303Z,26.78
2023-04-23T10:41:34.558Z,27.48
2023-04-23T10:44:05.067Z,27.88
2023-04-23T10:46:35.784Z,27.92
2023-04-23T10:49:16.760Z,28.07
2023-04-23T10:52:17.942Z,27.90
2023-04-23T10:54:37.265Z,28.04
2023-04-23T10:57:06.919Z,27.62
2023-04-23T10:59:38.822Z,27.08
2023-04-23T11:02:09.382Z,27.06
2023-04-23T11:04:43.417Z,27.84
2023-04-23T11:07:13.098Z,27.83
2023-04-23T11:09:49.069Z,27.59
2023-04-23T11:12:21.535Z,27.05
2023-04-23T11:14:50.538Z,28.03
2023-04-23T11:17:22.177Z,27.84
2023-04-23T11:20:21.003Z,27.64
2023-04-23T11:22:50.526Z,28.33
2023-04-23T11:25:22.933Z,28.20
2023-04-23T11:27:52.535Z,27.68
2023-04-23T11:30:22.634Z,28.17
2023-04-23T11:32:52.819Z,27.81
2023-04-23T11:35:23.210Z,28.21
2023-04-23T11:37:52.044Z,28.26
2023-04-23T11:40:21.629Z,28.10
2023-04-23T11:42:51.268Z,27.05
2023-04-23T11:45:21.556Z,27.21
2023-04-23T11:47:56.181Z,27.07
2023-04-23T11:50:27.614Z,26.98
2023-04-23T11:52:56.617Z,26.91
2023-04-23T11:55:25.481Z,28.29
2023-04-23T11:57:54.054Z,27.43
2023-04-23T12:00:24.834Z,27.15
2023-04-23T12:02:58.225Z,27.03
2023-04-23T12:05:43.800Z,26.30
2023-04-23T12:08:17.214Z,26.15
2023-04-23T12:10:55.931Z,26.39
2023-04-23T12:13:28.321Z,26.58
2023-04-23T12:16:04.542Z,26.57
2023-04-23T12:18:41.787Z,27.07
2023-04-23T12:21:13.825Z,27.46
2023-04-23T12:23:45.317Z,28.00
2023-04-23T12:26:15.760Z,28.93
2023-04-23T12:28:53.377Z,31.87
2023-04-23T12:31:25.788Z,34.35
2023-04-23T12:34:04.903Z,35.51
2023-04-23T12:36:35.189Z,37.46
2023-04-23T12:39:32.176Z,39.02
2023-04-23T12:42:06.911Z,41.19
2023-04-23T12:44:37.126Z,44.49
2023-04-23T12:47:09.300Z,47.62
2023-04-23T12:49:39.895Z,51.11
2023-04-23T12:52:09.065Z,52.80
2023-04-23T12:54:41.454Z,54.18
2023-04-23T12:57:17.836Z,55.65
2023-04-23T12:59:47.629Z,58.39
